Aeroporto :







RITROVATECI SU...

 
LOGIN :

Iscrizione | Disclaimer

   EN    FR    IT 

 









Sommario :    VFR   VFR Marginale   IFR   IFR Intensivo   IFR Molto Intensivo
Visibilità : 
Base nubi : 
>= 8 km
>= 3000ft
5 / 8 km
1000 / 3000 ft
1500m / 5 km
500 / 1000 ft
800 / 1500m
200 / 500 ft
< 800m
< 200 ft
Simboli :   Temporali  Nebbia  Neve Forte  Precipitazioni Forti  Vento > 20 kt







- Altitudine del aeroporto : 68 ft
- Codice IATA : YFC


CYFC - Fredericton

ULTIMO METAR :
  • 202220Z AUTO 13002KT 9SM BKN100 18/15 A2965 RMK SLP043 DENSITY ALT 700FT

METARs OBSOLETI :
  • 202200Z AUTO 16003KT 9SM -RA SCT100 BKN120 18/16 A2966 RMK SLP045 DENSITY ALT 600FT
  • 202125Z AUTO 18005KT 9SM -RA FEW035 OVC099 18/16 A2967 RMK SLP050 DENSITY ALT 600FT
  • 202117Z AUTO 19004KT 9SM OVC100 18/16 A2968 RMK SLP051 DENSITY ALT 600FT
  • 202100Z AUTO 20004KT 9SM -RA FEW065 OVC099 18/16 A2969 RMK SLP054 DENSITY ALT 600FT
  • 202011Z AUTO 19006KT 150V210 9SM -RA FEW039 SCT075 SCT100 19/15 A2969 RMK SLP056 DENSITY ALT 700FT

TAF TAF CYFC
Valido dal 20 a 18 ore il 21 a 06 ore UTC


201738Z 2018/2106 19012KT P6SM OVC025
TEMPO 2018/2101 OVC020
FM210100 VRB03KT P6SM OVC030
TEMPO 2101/2104 5SM -RA BR OVC020
FM210400 06008KT 2SM RA BR OVC006
PROB30 2104/2106 3/4SM +RA BR OVC003 RMK FCST BASED ON AUTO OBS. NXT FCST BY 210000Z
FIR CZQM / America del Nord



MetMap, La meteo Aeronautica in un colpo d'occhio ! - Copyright ORBIFLY Dicembre 2007 - Disclaimer

ORBIFLY MET'MAP TEAM :

Programmazione e sviluppo : Alexandra Zaïnal
Concezione e sviluppo : Baudouin d'Aumeries
Co-Programmazione e sviluppo : Marc-Olivier Méhu
Supporto tecnico e logistico : Manuel Goepfert
Aiuto per la traduzione : Arnaldo La Scala

Contatto : metmap@orbifly.com




FONTI E CREDITI :

   NOAA